KDUJ/DUJ METAR and TAF weather

Enter ICAO airport designator
Station Type Date Time Source
KDUJ METAR 2021/09/16 21:53 UTC NOAA

KDUJ 162153Z AUTO 10004KT 10SM OVC039 21/17 A3020 RMK AO2 SLP219 T02110172


Station Type Date Time Source
KDUJ Decoded METAR 2021/09/16 21:53 UTC NOAA

DU BOIS-JEFFERSON COUNTY, PA, United States (KDUJ) 41-11N 078-53W
Sep 16, 2021 - 05:53 PM EDT / 2021.09.16 2153 UTC
Wind: from the E (100 degrees) at 5 MPH (4 KT):0
Visibility: 10 mile(s):0
Sky conditions: overcast
Temperature: 70.0 F (21.1 C)
Dew Point: 63.0 F (17.2 C)
Relative Humidity: 78%
Pressure (altimeter): 30.2 in. Hg (1022 hPa)
ob: KDUJ 162153Z AUTO 10004KT 10SM OVC039 21/17 A3020 RMK AO2 SLP219 T02110172
cycle: 22

Station Type Date Time Source
KDUJ TAF 2021/09/16 21:15 UTC NOAA

TAF
AMD KDUJ 162113Z 1621/1718 10005KT P6SM BKN035
FM170400 11004KT P6SM BKN025
FM171000 11004KT 2SM BR BKN005
FM171400 15006KT 5SM BR SCT015
FM171600 15006KT P6SM BKN015

Example: see airport list